sensor_id;sensor_type;location;lat;lon;timestamp;pressure;altitude;pressure_sealevel;temperature;humidity
36598;BME280;22607;49.550;11.940;2022-11-21T00:03:38;95798.88;;;3.10;100.00
36598;BME280;22607;49.550;11.940;2022-11-21T00:06:05;95797.34;;;2.99;100.00
36598;BME280;22607;49.550;11.940;2022-11-21T00:08:31;95799.78;;;3.00;100.00
36598;BME280;22607;49.550;11.940;2022-11-21T00:10:58;95794.25;;;2.77;100.00
36598;BME280;22607;49.550;11.940;2022-11-21T00:13:24;95795.22;;;2.94;100.00
36598;BME280;22607;49.550;11.940;2022-11-21T00:15:51;95799.31;;;3.05;100.00
36598;BME280;22607;49.550;11.940;2022-11-21T00:18:17;95796.97;;;2.94;100.00
36598;BME280;22607;49.550;11.940;2022-11-21T00:20:46;95788.94;;;3.05;100.00
36598;BME280;22607;49.550;11.940;2022-11-21T00:23:12;95794.38;;;2.94;100.00
36598;BME280;22607;49.550;11.940;2022-11-21T00:25:39;95792.66;;;3.21;100.00
36598;BME280;22607;49.550;11.940;2022-11-21T00:28:05;95779.19;;;3.25;100.00
36598;BME280;22607;49.550;11.940;2022-11-21T00:30:32;95793.84;;;3.08;100.00
36598;BME280;22607;49.550;11.940;2022-11-21T00:32:59;95790.59;;;3.06;100.00
36598;BME280;22607;49.550;11.940;2022-11-21T00:35:25;95784.13;;;3.10;100.00
36598;BME280;22607;49.550;11.940;2022-11-21T00:37:52;95782.56;;;3.18;100.00
36598;BME280;22607;49.550;11.940;2022-11-21T00:40:18;95769.94;;;3.49;100.00
36598;BME280;22607;49.550;11.940;2022-11-21T00:42:45;95768.47;;;3.20;100.00
36598;BME280;22607;49.550;11.940;2022-11-21T00:45:11;95766.50;;;3.40;100.00
36598;BME280;22607;49.550;11.940;2022-11-21T00:47:39;95766.09;;;3.27;100.00
36598;BME280;22607;49.550;11.940;2022-11-21T00:50:05;95765.88;;;3.20;100.00
36598;BME280;22607;49.550;11.940;2022-11-21T00:52:31;95761.00;;;3.44;100.00
36598;BME280;22607;49.550;11.940;2022-11-21T00:54:58;95752.69;;;3.40;100.00
36598;BME280;22607;49.550;11.940;2022-11-21T00:57:24;95765.28;;;3.53;100.00
36598;BME280;22607;49.550;11.940;2022-11-21T00:59:51;95765.19;;;3.71;100.00
36598;BME280;22607;49.550;11.940;2022-11-21T01:02:17;95765.63;;;3.66;100.00
36598;BME280;22607;49.550;11.940;2022-11-21T01:04:45;95762.69;;;3.61;100.00
36598;BME280;22607;49.550;11.940;2022-11-21T01:07:12;95764.75;;;3.49;100.00
36598;BME280;22607;49.550;11.940;2022-11-21T01:09:39;95767.53;;;3.56;100.00
36598;BME280;22607;49.550;11.940;2022-11-21T01:12:06;95762.63;;;3.79;100.00
36598;BME280;22607;49.550;11.940;2022-11-21T01:14:32;95769.63;;;3.52;100.00
36598;BME280;22607;49.550;11.940;2022-11-21T01:16:58;95762.00;;;3.51;100.00
36598;BME280;22607;49.550;11.940;2022-11-21T01:19:31;95762.03;;;3.59;100.00
36598;BME280;22607;49.550;11.940;2022-11-21T01:21:57;95760.13;;;3.70;100.00
36598;BME280;22607;49.550;11.940;2022-11-21T01:24:23;95764.69;;;3.76;100.00
36598;BME280;22607;49.550;11.940;2022-11-21T01:26:50;95758.72;;;3.75;100.00
36598;BME280;22607;49.550;11.940;2022-11-21T01:29:18;95751.91;;;3.83;100.00
36598;BME280;22607;49.550;11.940;2022-11-21T01:31:45;95761.31;;;3.75;100.00
36598;BME280;22607;49.550;11.940;2022-11-21T01:34:11;95758.91;;;3.82;100.00
36598;BME280;22607;49.550;11.940;2022-11-21T01:36:40;95748.63;;;3.72;100.00
36598;BME280;22607;49.550;11.940;2022-11-21T01:39:06;95742.75;;;4.05;100.00
36598;BME280;22607;49.550;11.940;2022-11-21T01:41:34;95740.75;;;3.90;100.00
36598;BME280;22607;49.550;11.940;2022-11-21T01:44:02;95746.38;;;3.77;100.00
36598;BME280;22607;49.550;11.940;2022-11-21T01:46:28;95737.16;;;3.83;100.00
36598;BME280;22607;49.550;11.940;2022-11-21T01:48:57;95739.25;;;3.79;100.00
36598;BME280;22607;49.550;11.940;2022-11-21T01:53:58;95738.13;;;3.82;100.00
36598;BME280;22607;49.550;11.940;2022-11-21T01:56:27;95737.97;;;3.84;100.00
36598;BME280;22607;49.550;11.940;2022-11-21T01:58:55;95726.44;;;3.86;100.00
36598;BME280;22607;49.550;11.940;2022-11-21T02:01:23;95731.66;;;3.94;100.00
36598;BME280;22607;49.550;11.940;2022-11-21T02:03:50;95729.25;;;4.10;100.00
36598;BME280;22607;49.550;11.940;2022-11-21T02:06:18;95735.38;;;3.84;100.00
36598;BME280;22607;49.550;11.940;2022-11-21T02:08:45;95728.25;;;3.94;100.00
36598;BME280;22607;49.550;11.940;2022-11-21T02:11:26;95729.59;;;4.06;100.00
36598;BME280;22607;49.550;11.940;2022-11-21T02:13:54;95723.28;;;4.09;100.00
36598;BME280;22607;49.550;11.940;2022-11-21T02:16:21;95732.63;;;3.93;100.00
36598;BME280;22607;49.550;11.940;2022-11-21T02:18:48;95728.47;;;4.09;100.00
36598;BME280;22607;49.550;11.940;2022-11-21T02:24:34;95720.34;;;4.04;100.00
36598;BME280;22607;49.550;11.940;2022-11-21T02:27:04;95727.91;;;3.89;100.00
36598;BME280;22607;49.550;11.940;2022-11-21T02:29:31;95722.28;;;4.02;100.00
36598;BME280;22607;49.550;11.940;2022-11-21T02:31:58;95719.19;;;3.98;100.00
36598;BME280;22607;49.550;11.940;2022-11-21T02:34:25;95725.84;;;4.01;100.00
36598;BME280;22607;49.550;11.940;2022-11-21T02:36:53;95715.44;;;4.01;100.00
36598;BME280;22607;49.550;11.940;2022-11-21T02:39:21;95715.47;;;4.09;100.00
36598;BME280;22607;49.550;11.940;2022-11-21T02:41:58;95716.63;;;4.06;100.00
36598;BME280;22607;49.550;11.940;2022-11-21T02:44:28;95721.81;;;4.15;100.00
36598;BME280;22607;49.550;11.940;2022-11-21T02:46:57;95716.28;;;4.10;100.00
36598;BME280;22607;49.550;11.940;2022-11-21T02:49:29;95715.00;;;4.14;100.00
36598;BME280;22607;49.550;11.940;2022-11-21T02:51:56;95721.63;;;4.08;100.00
36598;BME280;22607;49.550;11.940;2022-11-21T02:54:23;95713.25;;;4.23;100.00
36598;BME280;22607;49.550;11.940;2022-11-21T02:56:49;95713.38;;;4.29;100.00
36598;BME280;22607;49.550;11.940;2022-11-21T02:59:16;95712.84;;;4.01;100.00
36598;BME280;22607;49.550;11.940;2022-11-21T03:01:42;95719.34;;;3.97;100.00
36598;BME280;22607;49.550;11.940;2022-11-21T03:04:09;95720.34;;;4.04;100.00
36598;BME280;22607;49.550;11.940;2022-11-21T03:06:35;95724.41;;;4.06;100.00
36598;BME280;22607;49.550;11.940;2022-11-21T03:09:01;95721.31;;;4.11;100.00
36598;BME280;22607;49.550;11.940;2022-11-21T03:11:28;95719.72;;;4.27;100.00
36598;BME280;22607;49.550;11.940;2022-11-21T03:13:54;95724.75;;;4.12;100.00
36598;BME280;22607;49.550;11.940;2022-11-21T03:16:20;95721.31;;;4.11;100.00
36598;BME280;22607;49.550;11.940;2022-11-21T03:18:47;95714.84;;;4.24;100.00
36598;BME280;22607;49.550;11.940;2022-11-21T03:21:13;95710.31;;;4.42;100.00
36598;BME280;22607;49.550;11.940;2022-11-21T03:23:40;95711.28;;;4.25;100.00
36598;BME280;22607;49.550;11.940;2022-11-21T03:26:06;95711.28;;;4.25;100.00
36598;BME280;22607;49.550;11.940;2022-11-21T03:28:32;95709.66;;;4.24;100.00
36598;BME280;22607;49.550;11.940;2022-11-21T03:30:59;95709.03;;;4.38;100.00
36598;BME280;22607;49.550;11.940;2022-11-21T03:33:25;95706.91;;;4.42;100.00
36598;BME280;22607;49.550;11.940;2022-11-21T03:35:51;95717.44;;;4.15;100.00
36598;BME280;22607;49.550;11.940;2022-11-21T03:38:18;95701.53;;;4.35;100.00
36598;BME280;22607;49.550;11.940;2022-11-21T03:40:44;95705.75;;;4.36;100.00
36598;BME280;22607;49.550;11.940;2022-11-21T03:43:10;95710.63;;;4.31;100.00
36598;BME280;22607;49.550;11.940;2022-11-21T03:45:37;95707.22;;;4.30;100.00
36598;BME280;22607;49.550;11.940;2022-11-21T03:48:04;95711.13;;;4.35;100.00
36598;BME280;22607;49.550;11.940;2022-11-21T03:50:31;95706.88;;;4.17;100.00
36598;BME280;22607;49.550;11.940;2022-11-21T03:52:57;95702.97;;;4.13;100.00
36598;BME280;22607;49.550;11.940;2022-11-21T03:55:23;95693.25;;;4.23;100.00
36598;BME280;22607;49.550;11.940;2022-11-21T03:57:56;95692.28;;;4.16;100.00
36598;BME280;22607;49.550;11.940;2022-11-21T04:00:22;95680.88;;;4.09;100.00
36598;BME280;22607;49.550;11.940;2022-11-21T04:02:48;95675.53;;;4.18;100.00
36598;BME280;22607;49.550;11.940;2022-11-21T04:05:15;95674.06;;;4.07;100.00
36598;BME280;22607;49.550;11.940;2022-11-21T04:07:41;95683.47;;;4.09;100.00
36598;BME280;22607;49.550;11.940;2022-11-21T04:10:08;95671.31;;;4.09;100.00
36598;BME280;22607;49.550;11.940;2022-11-21T04:12:34;95669.38;;;4.44;100.00
36598;BME280;22607;49.550;11.940;2022-11-21T04:15:00;95679.25;;;4.24;100.00
36598;BME280;22607;49.550;11.940;2022-11-21T04:17:27;95678.75;;;4.12;100.00
36598;BME280;22607;49.550;11.940;2022-11-21T04:19:53;95665.94;;;4.19;100.00
36598;BME280;22607;49.550;11.940;2022-11-21T04:22:20;95677.78;;;4.22;100.00
36598;BME280;22607;49.550;11.940;2022-11-21T04:24:46;95685.91;;;4.02;100.00
36598;BME280;22607;49.550;11.940;2022-11-21T04:27:12;95687.38;;;4.13;100.00
36598;BME280;22607;49.550;11.940;2022-11-21T04:29:45;95686.25;;;4.24;100.00
36598;BME280;22607;49.550;11.940;2022-11-21T04:32:11;95687.69;;;4.10;100.00
36598;BME280;22607;49.550;11.940;2022-11-21T04:34:37;95685.44;;;4.06;100.00
36598;BME280;22607;49.550;11.940;2022-11-21T04:37:04;95683.00;;;4.05;100.00
36598;BME280;22607;49.550;11.940;2022-11-21T04:39:36;95670.47;;;4.09;100.00
36598;BME280;22607;49.550;11.940;2022-11-21T04:42:03;95675.81;;;3.99;100.00
36598;BME280;22607;49.550;11.940;2022-11-21T04:44:29;95668.97;;;3.89;100.00
36598;BME280;22607;49.550;11.940;2022-11-21T04:46:56;95662.03;;;3.98;100.00
36598;BME280;22607;49.550;11.940;2022-11-21T04:49:30;95657.31;;;4.02;100.00
36598;BME280;22607;49.550;11.940;2022-11-21T04:51:56;95654.88;;;4.09;100.00
36598;BME280;22607;49.550;11.940;2022-11-21T04:54:22;95655.84;;;3.99;100.00
36598;BME280;22607;49.550;11.940;2022-11-21T04:56:49;95656.19;;;4.13;100.00
36598;BME280;22607;49.550;11.940;2022-11-21T04:59:15;95659.31;;;4.33;100.00
36598;BME280;22607;49.550;11.940;2022-11-21T05:01:41;95659.31;;;4.33;100.00
36598;BME280;22607;49.550;11.940;2022-11-21T05:04:08;95655.69;;;4.01;100.00
36598;BME280;22607;49.550;11.940;2022-11-21T05:06:34;95650.16;;;3.96;100.00
36598;BME280;22607;49.550;11.940;2022-11-21T05:09:02;95651.47;;;4.16;100.00
36598;BME280;22607;49.550;11.940;2022-11-21T05:11:28;95642.72;;;4.26;100.00
36598;BME280;22607;49.550;11.940;2022-11-21T05:14:14;95636.88;;;4.24;100.00
36598;BME280;22607;49.550;11.940;2022-11-21T05:16:41;95644.69;;;4.32;100.00
36598;BME280;22607;49.550;11.940;2022-11-21T05:19:08;95639.31;;;4.17;100.00
36598;BME280;22607;49.550;11.940;2022-11-21T05:21:34;95632.34;;;4.42;100.00
36598;BME280;22607;49.550;11.940;2022-11-21T05:24:02;95644.84;;;4.30;100.00
36598;BME280;22607;49.550;11.940;2022-11-21T05:26:29;95641.09;;;4.16;100.00
36598;BME280;22607;49.550;11.940;2022-11-21T05:28:55;95644.03;;;4.38;100.00
36598;BME280;22607;49.550;11.940;2022-11-21T05:31:22;95640.13;;;4.26;100.00
36598;BME280;22607;49.550;11.940;2022-11-21T05:33:48;95637.69;;;4.24;100.00
36598;BME280;22607;49.550;11.940;2022-11-21T05:36:14;95638.84;;;4.38;100.00
36598;BME280;22607;49.550;11.940;2022-11-21T05:38:41;95640.78;;;4.19;100.00
36598;BME280;22607;49.550;11.940;2022-11-21T05:41:07;95627.47;;;4.23;100.00
36598;BME280;22607;49.550;11.940;2022-11-21T05:43:41;95639.81;;;4.37;100.00
36598;BME280;22607;49.550;11.940;2022-11-21T05:46:15;95636.03;;;4.15;100.00
36598;BME280;22607;49.550;11.940;2022-11-21T05:48:42;95630.72;;;4.33;100.00
36598;BME280;22607;49.550;11.940;2022-11-21T05:51:08;95631.50;;;4.50;100.00
36598;BME280;22607;49.550;11.940;2022-11-21T05:53:35;95634.59;;;4.12;100.00
36598;BME280;22607;49.550;11.940;2022-11-21T05:56:02;95629.38;;;4.12;100.00
36598;BME280;22607;49.550;11.940;2022-11-21T05:58:29;95633.47;;;4.31;100.00
36598;BME280;22607;49.550;11.940;2022-11-21T06:00:56;95640.59;;;4.29;100.00
36598;BME280;22607;49.550;11.940;2022-11-21T06:03:25;95641.41;;;4.30;100.00
36598;BME280;22607;49.550;11.940;2022-11-21T06:06:12;95627.28;;;4.24;100.00
36598;BME280;22607;49.550;11.940;2022-11-21T06:08:40;95629.88;;;4.32;100.00
36598;BME280;22607;49.550;11.940;2022-11-21T06:11:07;95626.50;;;4.32;100.00
36598;BME280;22607;49.550;11.940;2022-11-21T06:13:33;95636.53;;;4.27;100.00
36598;BME280;22607;49.550;11.940;2022-11-21T06:16:01;95635.72;;;4.18;100.00
36598;BME280;22607;49.550;11.940;2022-11-21T06:18:35;95636.06;;;4.23;100.00
36598;BME280;22607;49.550;11.940;2022-11-21T06:21:03;95639.97;;;4.27;100.00
36598;BME280;22607;49.550;11.940;2022-11-21T06:23:35;95631.19;;;4.53;100.00
36598;BME280;22607;49.550;11.940;2022-11-21T06:26:02;95638.63;;;4.15;100.00
36598;BME280;22607;49.550;11.940;2022-11-21T06:28:30;95639.47;;;4.15;100.00
36598;BME280;22607;49.550;11.940;2022-11-21T06:31:00;95644.00;;;4.22;100.00
36598;BME280;22607;49.550;11.940;2022-11-21T06:33:27;95634.94;;;4.42;100.00
36598;BME280;22607;49.550;11.940;2022-11-21T06:35:53;95649.53;;;4.27;100.00
36598;BME280;22607;49.550;11.940;2022-11-21T06:38:20;95648.56;;;4.19;100.00
36598;BME280;22607;49.550;11.940;2022-11-21T06:40:46;95653.44;;;4.39;100.00
36598;BME280;22607;49.550;11.940;2022-11-21T06:43:13;95659.63;;;4.38;100.00
36598;BME280;22607;49.550;11.940;2022-11-21T06:45:41;95663.53;;;4.34;100.00
36598;BME280;22607;49.550;11.940;2022-11-21T06:48:07;95662.56;;;4.43;100.00
36598;BME280;22607;49.550;11.940;2022-11-21T06:50:34;95648.41;;;4.54;100.00
36598;BME280;22607;49.550;11.940;2022-11-21T06:53:00;95664.81;;;4.22;100.00
36598;BME280;22607;49.550;11.940;2022-11-21T06:55:26;95664.00;;;4.13;100.00
36598;BME280;22607;49.550;11.940;2022-11-21T06:57:57;95670.00;;;4.22;100.00
36598;BME280;22607;49.550;11.940;2022-11-21T07:00:25;95665.97;;;4.44;100.00
36598;BME280;22607;49.550;11.940;2022-11-21T07:02:51;95673.75;;;4.52;100.00
36598;BME280;22607;49.550;11.940;2022-11-21T07:05:19;95678.31;;;4.50;100.00
36598;BME280;22607;49.550;11.940;2022-11-21T07:07:46;95681.72;;;4.42;100.00
36598;BME280;22607;49.550;11.940;2022-11-21T07:10:13;95683.19;;;4.45;100.00
36598;BME280;22607;49.550;11.940;2022-11-21T07:12:40;95681.41;;;4.29;100.00
36598;BME280;22607;49.550;11.940;2022-11-21T07:15:24;95684.31;;;4.34;100.00
36598;BME280;22607;49.550;11.940;2022-11-21T07:17:51;95695.38;;;4.28;100.00
36598;BME280;22607;49.550;11.940;2022-11-21T07:20:17;95685.78;;;4.62;100.00
36598;BME280;22607;49.550;11.940;2022-11-21T07:22:44;95693.44;;;4.46;100.00
36598;BME280;22607;49.550;11.940;2022-11-21T07:25:10;95692.94;;;4.68;100.00
36598;BME280;22607;49.550;11.940;2022-11-21T07:27:36;95697.47;;;4.32;100.00
36598;BME280;22607;49.550;11.940;2022-11-21T07:30:03;95696.03;;;4.38;100.00
36598;BME280;22607;49.550;11.940;2022-11-21T07:32:29;95695.72;;;4.75;100.00
36598;BME280;22607;49.550;11.940;2022-11-21T07:34:56;95698.63;;;4.46;100.00
36598;BME280;22607;49.550;11.940;2022-11-21T07:37:22;95698.63;;;4.38;100.00
36598;BME280;22607;49.550;11.940;2022-11-21T07:39:48;95701.88;;;4.57;100.00
36598;BME280;22607;49.550;11.940;2022-11-21T07:42:15;95703.84;;;4.46;100.00
36598;BME280;22607;49.550;11.940;2022-11-21T07:44:41;95708.38;;;4.61;100.00
36598;BME280;22607;49.550;11.940;2022-11-21T07:47:08;95704.00;;;4.45;100.00
36598;BME280;22607;49.550;11.940;2022-11-21T07:49:35;95712.28;;;4.65;100.00
36598;BME280;22607;49.550;11.940;2022-11-21T07:52:01;95701.22;;;4.71;100.00
36598;BME280;22607;49.550;11.940;2022-11-21T07:54:28;95707.41;;;4.62;100.00
36598;BME280;22607;49.550;11.940;2022-11-21T07:56:55;95710.00;;;4.70;100.00
36598;BME280;22607;49.550;11.940;2022-11-21T07:59:21;95709.69;;;4.65;100.00
36598;BME280;22607;49.550;11.940;2022-11-21T08:01:49;95713.91;;;4.58;100.00
36598;BME280;22607;49.550;11.940;2022-11-21T08:04:18;95715.06;;;4.64;100.00
36598;BME280;22607;49.550;11.940;2022-11-21T08:06:45;95722.69;;;4.49;100.00
36598;BME280;22607;49.550;11.940;2022-11-21T08:09:11;95724.63;;;4.63;100.00
36598;BME280;22607;49.550;11.940;2022-11-21T08:11:37;95719.75;;;4.77;100.00
36598;BME280;22607;49.550;11.940;2022-11-21T08:14:05;95722.34;;;4.68;100.00
36598;BME280;22607;49.550;11.940;2022-11-21T08:16:31;95730.00;;;4.78;100.00
36598;BME280;22607;49.550;11.940;2022-11-21T08:19:00;95724.97;;;4.52;100.00
36598;BME280;22607;49.550;11.940;2022-11-21T08:21:28;95727.91;;;4.65;100.00
36598;BME280;22607;49.550;11.940;2022-11-21T08:23:54;95730.66;;;4.64;100.00
36598;BME280;22607;49.550;11.940;2022-11-21T08:26:21;95736.03;;;4.62;100.00
36598;BME280;22607;49.550;11.940;2022-11-21T08:28:47;95731.16;;;4.76;100.00
36598;BME280;22607;49.550;11.940;2022-11-21T08:31:14;95730.81;;;4.95;100.00
36598;BME280;22607;49.550;11.940;2022-11-21T08:33:40;95732.75;;;4.68;100.00
36598;BME280;22607;49.550;11.940;2022-11-21T08:36:06;95730.81;;;4.87;100.00
36598;BME280;22607;49.550;11.940;2022-11-21T08:38:33;95734.72;;;4.83;100.00
36598;BME280;22607;49.550;11.940;2022-11-21T08:41:00;95735.38;;;4.77;100.00
36598;BME280;22607;49.550;11.940;2022-11-21T08:43:44;95740.91;;;4.90;100.00
36598;BME280;22607;49.550;11.940;2022-11-21T08:46:11;95750.31;;;4.91;100.00
36598;BME280;22607;49.550;11.940;2022-11-21T08:48:37;95746.94;;;4.91;100.00
36598;BME280;22607;49.550;11.940;2022-11-21T08:51:03;95744.97;;;5.01;100.00
36598;BME280;22607;49.550;11.940;2022-11-21T08:53:30;95756.50;;;4.90;100.00
36598;BME280;22607;49.550;11.940;2022-11-21T08:55:56;95745.44;;;5.05;100.00
36598;BME280;22607;49.550;11.940;2022-11-21T08:58:29;95750.00;;;5.03;100.00
36598;BME280;22607;49.550;11.940;2022-11-21T09:00:55;95751.94;;;5.09;100.00
36598;BME280;22607;49.550;11.940;2022-11-21T09:03:22;95743.16;;;5.18;100.00
36598;BME280;22607;49.550;11.940;2022-11-21T09:05:56;95742.81;;;5.21;100.00
36598;BME280;22607;49.550;11.940;2022-11-21T09:08:25;95741.47;;;5.34;100.00
36598;BME280;22607;49.550;11.940;2022-11-21T09:10:51;95747.03;;;5.31;100.00
36598;BME280;22607;49.550;11.940;2022-11-21T09:13:17;95739.25;;;5.06;100.00
36598;BME280;22607;49.550;11.940;2022-11-21T09:15:44;95746.38;;;5.20;100.00
36598;BME280;22607;49.550;11.940;2022-11-21T09:18:29;95753.41;;;5.20;100.00
36598;BME280;22607;49.550;11.940;2022-11-21T09:20:55;95744.53;;;5.46;100.00
36598;BME280;22607;49.550;11.940;2022-11-21T09:23:21;95750.44;;;5.39;100.00
36598;BME280;22607;49.550;11.940;2022-11-21T09:25:48;95749.28;;;5.42;100.00
36598;BME280;22607;49.550;11.940;2022-11-21T09:28:14;95754.03;;;5.30;100.00
36598;BME280;22607;49.550;11.940;2022-11-21T09:30:41;95760.69;;;5.33;100.00
36598;BME280;22607;49.550;11.940;2022-11-21T09:33:11;95758.38;;;5.46;100.00
36598;BME280;22607;49.550;11.940;2022-11-21T09:35:38;95763.63;;;5.38;100.00
36598;BME280;22607;49.550;11.940;2022-11-21T09:38:04;95759.06;;;5.32;100.00
36598;BME280;22607;49.550;11.940;2022-11-21T09:40:31;95761.31;;;5.51;100.00
36598;BME280;22607;49.550;11.940;2022-11-21T09:45:25;95766.66;;;5.67;100.00
36598;BME280;22607;49.550;11.940;2022-11-21T09:47:54;95775.78;;;5.62;100.00
36598;BME280;22607;49.550;11.940;2022-11-21T09:52:52;95769.72;;;5.70;100.00
36598;BME280;22607;49.550;11.940;2022-11-21T09:55:22;95772.66;;;5.67;100.00
36598;BME280;22607;49.550;11.940;2022-11-21T09:57:51;95773.75;;;5.81;100.00
36598;BME280;22607;49.550;11.940;2022-11-21T10:00:22;95779.69;;;5.58;100.00
36598;BME280;22607;49.550;11.940;2022-11-21T10:02:49;95778.84;;;5.74;100.00
36598;BME280;22607;49.550;11.940;2022-11-21T10:05:16;95774.09;;;5.78;100.00
36598;BME280;22607;49.550;11.940;2022-11-21T10:07:48;95773.16;;;5.62;100.00
36598;BME280;22607;49.550;11.940;2022-11-21T10:23:15;95763.41;;;6.13;100.00
36598;BME280;22607;49.550;11.940;2022-11-21T10:25:54;95764.25;;;6.37;100.00
36598;BME280;22607;49.550;11.940;2022-11-21T10:28:25;95766.25;;;6.26;100.00
36598;BME280;22607;49.550;11.940;2022-11-21T10:30:57;95762.47;;;6.06;100.00
36598;BME280;22607;49.550;11.940;2022-11-21T10:35:54;95772.91;;;6.06;100.00
36598;BME280;22607;49.550;11.940;2022-11-21T10:38:23;95781.41;;;5.83;100.00
36598;BME280;22607;49.550;11.940;2022-11-21T10:40:51;95774.44;;;5.75;100.00
36598;BME280;22607;49.550;11.940;2022-11-21T10:46:10;95752.00;;;5.65;100.00
36598;BME280;22607;49.550;11.940;2022-11-21T10:48:38;95748.97;;;5.29;100.00
36598;BME280;22607;49.550;11.940;2022-11-21T10:51:17;95752.84;;;5.49;100.00
36598;BME280;22607;49.550;11.940;2022-11-21T10:53:48;95746.34;;;5.54;100.00
36598;BME280;22607;49.550;11.940;2022-11-21T10:56:46;95747.28;;;5.61;100.00
36598;BME280;22607;49.550;11.940;2022-11-21T10:59:18;95756.94;;;5.52;100.00
36598;BME280;22607;49.550;11.940;2022-11-21T11:01:56;95750.72;;;5.53;100.00
36598;BME280;22607;49.550;11.940;2022-11-21T11:04:23;95753.47;;;5.60;100.00
36598;BME280;22607;49.550;11.940;2022-11-21T11:06:54;95748.53;;;5.82;100.00
36598;BME280;22607;49.550;11.940;2022-11-21T11:09:24;95750.50;;;5.71;100.00
36598;BME280;22607;49.550;11.940;2022-11-21T11:11:50;95755.75;;;5.63;100.00
36598;BME280;22607;49.550;11.940;2022-11-21T11:14:25;95750.56;;;5.63;100.00
36598;BME280;22607;49.550;11.940;2022-11-21T11:16:53;95749.97;;;5.36;100.00
36598;BME280;22607;49.550;11.940;2022-11-21T11:19:23;95752.41;;;5.12;100.00
36598;BME280;22607;49.550;11.940;2022-11-21T11:22:00;95755.53;;;5.16;100.00
36598;BME280;22607;49.550;11.940;2022-11-21T11:24:27;95749.81;;;5.21;100.00
36598;BME280;22607;49.550;11.940;2022-11-21T11:29:20;95757.16;;;5.17;100.00
36598;BME280;22607;49.550;11.940;2022-11-21T11:31:49;95745.59;;;5.20;100.00
36598;BME280;22607;49.550;11.940;2022-11-21T11:34:17;95751.44;;;5.13;100.00
36598;BME280;22607;49.550;11.940;2022-11-21T11:36:47;95751.63;;;4.87;100.00
36598;BME280;22607;49.550;11.940;2022-11-21T11:42:02;95737.78;;;5.03;100.00
36598;BME280;22607;49.550;11.940;2022-11-21T11:44:55;95727.53;;;5.02;100.00
36598;BME280;22607;49.550;11.940;2022-11-21T11:47:48;95736.69;;;4.97;100.00
36598;BME280;22607;49.550;11.940;2022-11-21T11:50:22;95733.72;;;4.92;100.00
36598;BME280;22607;49.550;11.940;2022-11-21T11:55:18;95724.78;;;5.03;100.00
36598;BME280;22607;49.550;11.940;2022-11-21T11:57:47;95724.31;;;4.83;100.00
36598;BME280;22607;49.550;11.940;2022-11-21T12:00:20;95718.16;;;4.84;100.00
36598;BME280;22607;49.550;11.940;2022-11-21T12:05:30;95704.78;;;4.95;100.00
36598;BME280;22607;49.550;11.940;2022-11-21T12:10:48;95715.34;;;5.19;100.00
36598;BME280;22607;49.550;11.940;2022-11-21T12:13:34;95710.75;;;5.21;100.00
36598;BME280;22607;49.550;11.940;2022-11-21T12:16:02;95715.97;;;5.21;100.00
36598;BME280;22607;49.550;11.940;2022-11-21T12:18:50;95710.59;;;5.31;100.00
36598;BME280;22607;49.550;11.940;2022-11-21T12:21:29;95705.72;;;5.28;100.00
36598;BME280;22607;49.550;11.940;2022-11-21T12:23:56;95716.13;;;5.19;100.00
36598;BME280;22607;49.550;11.940;2022-11-21T12:26:39;95699.69;;;5.27;100.00
36598;BME280;22607;49.550;11.940;2022-11-21T12:34:29;95704.22;;;5.42;100.00
36598;BME280;22607;49.550;11.940;2022-11-21T12:45:29;95694.16;;;5.30;100.00
36598;BME280;22607;49.550;11.940;2022-11-21T12:51:24;95687.63;;;5.34;100.00
36598;BME280;22607;49.550;11.940;2022-11-21T12:54:28;95689.03;;;5.54;100.00
36598;BME280;22607;49.550;11.940;2022-11-21T12:59:26;95681.84;;;5.64;100.00
36598;BME280;22607;49.550;11.940;2022-11-21T13:02:16;95678.75;;;5.60;100.00
36598;BME280;22607;49.550;11.940;2022-11-21T13:04:48;95679.88;;;5.58;100.00
36598;BME280;22607;49.550;11.940;2022-11-21T13:07:15;95676.97;;;5.52;100.00
36598;BME280;22607;49.550;11.940;2022-11-21T13:09:46;95683.31;;;5.90;100.00
36598;BME280;22607;49.550;11.940;2022-11-21T13:12:20;95669.69;;;5.80;100.00
36598;BME280;22607;49.550;11.940;2022-11-21T13:20:05;95669.34;;;5.91;100.00
36598;BME280;22607;49.550;11.940;2022-11-21T13:25:03;95673.56;;;5.92;100.00
36598;BME280;22607;49.550;11.940;2022-11-21T13:27:38;95672.78;;;5.83;100.00
36598;BME280;22607;49.550;11.940;2022-11-21T13:32:41;95661.09;;;6.11;100.00
36598;BME280;22607;49.550;11.940;2022-11-21T13:45:54;95667.31;;;6.10;100.00
36598;BME280;22607;49.550;11.940;2022-11-21T13:53:45;95654.56;;;6.15;100.00
36598;BME280;22607;49.550;11.940;2022-11-21T14:07:19;95644.47;;;6.12;100.00
36598;BME280;22607;49.550;11.940;2022-11-21T14:09:48;95642.72;;;6.27;100.00
36598;BME280;22607;49.550;11.940;2022-11-21T14:12:37;95648.69;;;6.13;100.00
36598;BME280;22607;49.550;11.940;2022-11-21T14:15:12;95636.19;;;6.00;100.00
36598;BME280;22607;49.550;11.940;2022-11-21T14:17:41;95635.03;;;6.11;100.00
36598;BME280;22607;49.550;11.940;2022-11-21T14:22:45;95637.59;;;6.19;100.00
36598;BME280;22607;49.550;11.940;2022-11-21T14:25:14;95633.53;;;6.16;100.00
36598;BME280;22607;49.550;11.940;2022-11-21T14:27:47;95633.00;;;6.21;100.00
36598;BME280;22607;49.550;11.940;2022-11-21T14:30:25;95630.38;;;5.98;100.00
36598;BME280;22607;49.550;11.940;2022-11-21T14:32:52;95624.84;;;6.24;100.00
36598;BME280;22607;49.550;11.940;2022-11-21T14:35:23;95634.03;;;6.35;100.00
36598;BME280;22607;49.550;11.940;2022-11-21T14:40:22;95627.38;;;6.09;100.00
36598;BME280;22607;49.550;11.940;2022-11-21T14:42:48;95625.66;;;5.93;100.00
36598;BME280;22607;49.550;11.940;2022-11-21T14:45:16;95631.31;;;5.73;100.00